sensor_id;sensor_type;location;lat;lon;timestamp;temperature;humidity
11925;DHT22;6022;48.768;18.608;2022-07-23T00:01:00;24.60;99.90
11925;DHT22;6022;48.768;18.608;2022-07-23T00:03:28;24.70;99.90
11925;DHT22;6022;48.768;18.608;2022-07-23T00:05:56;24.50;99.90
11925;DHT22;6022;48.768;18.608;2022-07-23T00:08:24;24.50;99.90
11925;DHT22;6022;48.768;18.608;2022-07-23T00:10:51;24.50;99.90
11925;DHT22;6022;48.768;18.608;2022-07-23T00:13:19;24.40;99.90
11925;DHT22;6022;48.768;18.608;2022-07-23T00:15:47;24.30;99.90
11925;DHT22;6022;48.768;18.608;2022-07-23T00:18:15;24.30;99.90
11925;DHT22;6022;48.768;18.608;2022-07-23T00:20:42;24.30;99.90
11925;DHT22;6022;48.768;18.608;2022-07-23T00:23:11;24.00;99.90
11925;DHT22;6022;48.768;18.608;2022-07-23T00:25:39;24.30;99.90
11925;DHT22;6022;48.768;18.608;2022-07-23T00:28:07;24.40;99.90
11925;DHT22;6022;48.768;18.608;2022-07-23T00:30:35;24.40;99.90
11925;DHT22;6022;48.768;18.608;2022-07-23T00:33:06;24.40;99.90
11925;DHT22;6022;48.768;18.608;2022-07-23T00:35:39;24.40;99.90
11925;DHT22;6022;48.768;18.608;2022-07-23T00:38:09;24.50;99.90
11925;DHT22;6022;48.768;18.608;2022-07-23T00:40:38;24.40;99.90
11925;DHT22;6022;48.768;18.608;2022-07-23T00:43:09;24.40;99.90
11925;DHT22;6022;48.768;18.608;2022-07-23T00:45:37;24.20;99.90
11925;DHT22;6022;48.768;18.608;2022-07-23T00:48:10;24.30;99.90
11925;DHT22;6022;48.768;18.608;2022-07-23T00:50:40;24.10;99.90
11925;DHT22;6022;48.768;18.608;2022-07-23T00:53:13;24.30;99.90
11925;DHT22;6022;48.768;18.608;2022-07-23T00:55:44;24.20;99.90
11925;DHT22;6022;48.768;18.608;2022-07-23T00:58:11;24.10;99.90
11925;DHT22;6022;48.768;18.608;2022-07-23T01:00:39;24.10;99.90
11925;DHT22;6022;48.768;18.608;2022-07-23T01:03:07;24.00;99.90
11925;DHT22;6022;48.768;18.608;2022-07-23T01:05:37;24.00;99.90
11925;DHT22;6022;48.768;18.608;2022-07-23T01:08:06;23.80;99.90
11925;DHT22;6022;48.768;18.608;2022-07-23T01:10:34;23.70;99.90
11925;DHT22;6022;48.768;18.608;2022-07-23T01:13:09;23.70;99.90
11925;DHT22;6022;48.768;18.608;2022-07-23T01:15:38;23.80;99.90
11925;DHT22;6022;48.768;18.608;2022-07-23T01:18:07;23.80;99.90
11925;DHT22;6022;48.768;18.608;2022-07-23T01:20:35;23.70;99.90
11925;DHT22;6022;48.768;18.608;2022-07-23T01:23:03;23.70;99.90
11925;DHT22;6022;48.768;18.608;2022-07-23T01:25:31;23.70;99.90
11925;DHT22;6022;48.768;18.608;2022-07-23T01:27:59;23.90;99.90
11925;DHT22;6022;48.768;18.608;2022-07-23T01:30:28;24.00;99.90
11925;DHT22;6022;48.768;18.608;2022-07-23T01:32:56;23.80;99.90
11925;DHT22;6022;48.768;18.608;2022-07-23T01:35:23;23.70;99.90
11925;DHT22;6022;48.768;18.608;2022-07-23T01:37:53;23.70;99.90
11925;DHT22;6022;48.768;18.608;2022-07-23T01:40:21;23.70;99.90
11925;DHT22;6022;48.768;18.608;2022-07-23T01:42:50;23.60;99.90
11925;DHT22;6022;48.768;18.608;2022-07-23T01:45:17;23.60;99.90
11925;DHT22;6022;48.768;18.608;2022-07-23T01:47:45;23.50;99.90
11925;DHT22;6022;48.768;18.608;2022-07-23T01:50:14;23.30;99.90
11925;DHT22;6022;48.768;18.608;2022-07-23T01:52:41;23.30;99.90
11925;DHT22;6022;48.768;18.608;2022-07-23T01:55:09;23.30;99.90
11925;DHT22;6022;48.768;18.608;2022-07-23T01:57:45;23.30;99.90
11925;DHT22;6022;48.768;18.608;2022-07-23T02:00:14;23.20;99.90
11925;DHT22;6022;48.768;18.608;2022-07-23T02:02:42;23.20;99.90
11925;DHT22;6022;48.768;18.608;2022-07-23T02:05:09;22.90;99.90
11925;DHT22;6022;48.768;18.608;2022-07-23T02:07:38;23.10;99.90
11925;DHT22;6022;48.768;18.608;2022-07-23T02:10:06;22.80;99.90
11925;DHT22;6022;48.768;18.608;2022-07-23T02:12:34;22.80;99.90
11925;DHT22;6022;48.768;18.608;2022-07-23T02:15:03;23.10;99.90
11925;DHT22;6022;48.768;18.608;2022-07-23T02:17:31;23.00;99.90
11925;DHT22;6022;48.768;18.608;2022-07-23T02:19:59;23.10;99.90
11925;DHT22;6022;48.768;18.608;2022-07-23T02:22:27;23.10;99.90
11925;DHT22;6022;48.768;18.608;2022-07-23T02:24:55;23.10;99.90
11925;DHT22;6022;48.768;18.608;2022-07-23T02:27:23;23.10;99.90
11925;DHT22;6022;48.768;18.608;2022-07-23T02:29:53;22.90;99.90
11925;DHT22;6022;48.768;18.608;2022-07-23T02:32:21;23.10;99.90
11925;DHT22;6022;48.768;18.608;2022-07-23T02:34:51;23.10;99.90
11925;DHT22;6022;48.768;18.608;2022-07-23T02:37:19;23.10;99.90
11925;DHT22;6022;48.768;18.608;2022-07-23T02:39:46;23.10;99.90
11925;DHT22;6022;48.768;18.608;2022-07-23T02:42:16;23.10;99.90
11925;DHT22;6022;48.768;18.608;2022-07-23T02:44:44;23.10;99.90
11925;DHT22;6022;48.768;18.608;2022-07-23T02:47:13;23.10;99.90
11925;DHT22;6022;48.768;18.608;2022-07-23T02:49:41;22.90;99.90
11925;DHT22;6022;48.768;18.608;2022-07-23T02:52:09;23.10;99.90
11925;DHT22;6022;48.768;18.608;2022-07-23T02:54:39;22.90;99.90
11925;DHT22;6022;48.768;18.608;2022-07-23T02:57:09;23.00;99.90
11925;DHT22;6022;48.768;18.608;2022-07-23T02:59:37;22.90;99.90
11925;DHT22;6022;48.768;18.608;2022-07-23T03:02:04;22.80;99.90
11925;DHT22;6022;48.768;18.608;2022-07-23T03:04:32;23.00;99.90
11925;DHT22;6022;48.768;18.608;2022-07-23T03:07:00;22.70;99.90
11925;DHT22;6022;48.768;18.608;2022-07-23T03:09:31;22.70;99.90
11925;DHT22;6022;48.768;18.608;2022-07-23T03:11:58;22.90;99.90
11925;DHT22;6022;48.768;18.608;2022-07-23T03:14:26;22.70;99.90
11925;DHT22;6022;48.768;18.608;2022-07-23T03:16:54;22.80;99.90
11925;DHT22;6022;48.768;18.608;2022-07-23T03:19:22;22.70;99.90
11925;DHT22;6022;48.768;18.608;2022-07-23T03:21:51;22.70;99.90
11925;DHT22;6022;48.768;18.608;2022-07-23T03:24:18;22.80;99.90
11925;DHT22;6022;48.768;18.608;2022-07-23T03:26:46;22.80;99.90
11925;DHT22;6022;48.768;18.608;2022-07-23T03:29:14;22.80;99.90
11925;DHT22;6022;48.768;18.608;2022-07-23T03:31:42;22.80;99.90
11925;DHT22;6022;48.768;18.608;2022-07-23T03:34:09;22.90;99.90
11925;DHT22;6022;48.768;18.608;2022-07-23T03:36:38;22.90;99.90
11925;DHT22;6022;48.768;18.608;2022-07-23T03:39:06;22.70;99.90
11925;DHT22;6022;48.768;18.608;2022-07-23T03:41:40;22.80;99.90
11925;DHT22;6022;48.768;18.608;2022-07-23T03:44:07;22.80;99.90
11925;DHT22;6022;48.768;18.608;2022-07-23T03:46:34;22.90;99.90
11925;DHT22;6022;48.768;18.608;2022-07-23T03:49:03;23.10;99.90
11925;DHT22;6022;48.768;18.608;2022-07-23T03:51:31;23.20;99.90
11925;DHT22;6022;48.768;18.608;2022-07-23T03:53:59;23.20;99.90
11925;DHT22;6022;48.768;18.608;2022-07-23T03:56:26;23.20;99.90
11925;DHT22;6022;48.768;18.608;2022-07-23T03:58:56;23.20;99.90
11925;DHT22;6022;48.768;18.608;2022-07-23T04:01:25;23.20;99.90
11925;DHT22;6022;48.768;18.608;2022-07-23T04:03:53;23.30;99.90
11925;DHT22;6022;48.768;18.608;2022-07-23T04:06:20;23.30;99.90
11925;DHT22;6022;48.768;18.608;2022-07-23T04:08:48;23.30;99.90
11925;DHT22;6022;48.768;18.608;2022-07-23T04:11:16;23.60;99.90
11925;DHT22;6022;48.768;18.608;2022-07-23T04:13:44;23.60;99.90
11925;DHT22;6022;48.768;18.608;2022-07-23T04:16:11;23.70;99.90
11925;DHT22;6022;48.768;18.608;2022-07-23T04:18:39;23.90;99.90
11925;DHT22;6022;48.768;18.608;2022-07-23T04:21:07;24.20;99.90
11925;DHT22;6022;48.768;18.608;2022-07-23T04:23:34;23.90;99.90
11925;DHT22;6022;48.768;18.608;2022-07-23T04:26:02;24.00;99.90
11925;DHT22;6022;48.768;18.608;2022-07-23T04:28:30;24.00;99.90
11925;DHT22;6022;48.768;18.608;2022-07-23T04:30:58;23.90;99.90
11925;DHT22;6022;48.768;18.608;2022-07-23T04:33:26;24.10;99.90
11925;DHT22;6022;48.768;18.608;2022-07-23T04:35:54;24.20;99.90
11925;DHT22;6022;48.768;18.608;2022-07-23T04:38:21;24.20;99.90
11925;DHT22;6022;48.768;18.608;2022-07-23T04:40:49;24.30;99.90
11925;DHT22;6022;48.768;18.608;2022-07-23T04:43:17;24.20;99.90
11925;DHT22;6022;48.768;18.608;2022-07-23T04:45:46;24.30;99.90
11925;DHT22;6022;48.768;18.608;2022-07-23T04:48:14;24.30;99.90
11925;DHT22;6022;48.768;18.608;2022-07-23T04:50:43;24.50;99.90
11925;DHT22;6022;48.768;18.608;2022-07-23T04:53:11;24.50;99.90
11925;DHT22;6022;48.768;18.608;2022-07-23T04:55:38;24.50;99.90
11925;DHT22;6022;48.768;18.608;2022-07-23T04:58:06;24.60;99.90
11925;DHT22;6022;48.768;18.608;2022-07-23T05:00:34;24.80;99.90
11925;DHT22;6022;48.768;18.608;2022-07-23T05:03:01;24.80;99.90
11925;DHT22;6022;48.768;18.608;2022-07-23T05:05:29;25.00;99.90
11925;DHT22;6022;48.768;18.608;2022-07-23T05:07:56;25.10;99.90
11925;DHT22;6022;48.768;18.608;2022-07-23T05:10:24;25.20;99.90
11925;DHT22;6022;48.768;18.608;2022-07-23T05:12:53;25.10;99.90
11925;DHT22;6022;48.768;18.608;2022-07-23T05:15:20;25.30;99.90
11925;DHT22;6022;48.768;18.608;2022-07-23T05:17:48;26.50;99.90
11925;DHT22;6022;48.768;18.608;2022-07-23T05:20:15;26.50;99.90
11925;DHT22;6022;48.768;18.608;2022-07-23T05:22:44;27.40;99.90
11925;DHT22;6022;48.768;18.608;2022-07-23T05:25:11;28.00;99.90
11925;DHT22;6022;48.768;18.608;2022-07-23T05:27:39;28.60;99.90
11925;DHT22;6022;48.768;18.608;2022-07-23T05:30:07;29.80;99.90
11925;DHT22;6022;48.768;18.608;2022-07-23T05:32:35;29.70;99.90
11925;DHT22;6022;48.768;18.608;2022-07-23T05:35:05;30.00;98.10
11925;DHT22;6022;48.768;18.608;2022-07-23T05:37:33;29.90;98.40
11925;DHT22;6022;48.768;18.608;2022-07-23T05:40:07;30.00;98.30
11925;DHT22;6022;48.768;18.608;2022-07-23T05:42:40;30.30;97.70
11925;DHT22;6022;48.768;18.608;2022-07-23T05:45:09;30.80;96.10
11925;DHT22;6022;48.768;18.608;2022-07-23T05:47:42;31.30;94.40
11925;DHT22;6022;48.768;18.608;2022-07-23T05:50:13;31.50;93.10
11925;DHT22;6022;48.768;18.608;2022-07-23T05:52:41;32.10;90.40
11925;DHT22;6022;48.768;18.608;2022-07-23T05:55:11;32.20;90.70
11925;DHT22;6022;48.768;18.608;2022-07-23T05:57:40;32.80;84.80
11925;DHT22;6022;48.768;18.608;2022-07-23T06:00:10;32.80;85.00
11925;DHT22;6022;48.768;18.608;2022-07-23T06:02:39;32.70;82.60
11925;DHT22;6022;48.768;18.608;2022-07-23T06:05:07;33.00;83.50
11925;DHT22;6022;48.768;18.608;2022-07-23T06:07:35;33.10;80.10
11925;DHT22;6022;48.768;18.608;2022-07-23T06:10:04;33.10;80.50
11925;DHT22;6022;48.768;18.608;2022-07-23T06:12:32;33.60;77.10
11925;DHT22;6022;48.768;18.608;2022-07-23T06:15:01;33.90;74.70
11925;DHT22;6022;48.768;18.608;2022-07-23T06:17:30;33.80;74.20
11925;DHT22;6022;48.768;18.608;2022-07-23T06:19:58;33.30;74.80
11925;DHT22;6022;48.768;18.608;2022-07-23T06:22:26;32.70;76.50
11925;DHT22;6022;48.768;18.608;2022-07-23T06:24:54;31.80;78.70
11925;DHT22;6022;48.768;18.608;2022-07-23T06:27:21;31.20;81.60
11925;DHT22;6022;48.768;18.608;2022-07-23T06:29:52;30.60;85.10
11925;DHT22;6022;48.768;18.608;2022-07-23T06:32:20;30.70;85.50
11925;DHT22;6022;48.768;18.608;2022-07-23T06:34:48;31.80;83.10
11925;DHT22;6022;48.768;18.608;2022-07-23T06:37:16;31.80;83.20
11925;DHT22;6022;48.768;18.608;2022-07-23T06:39:44;33.30;79.90
11925;DHT22;6022;48.768;18.608;2022-07-23T06:42:12;33.10;79.20
11925;DHT22;6022;48.768;18.608;2022-07-23T06:44:41;34.00;75.80
11925;DHT22;6022;48.768;18.608;2022-07-23T06:47:09;34.90;73.20
11925;DHT22;6022;48.768;18.608;2022-07-23T06:49:36;35.30;69.40
11925;DHT22;6022;48.768;18.608;2022-07-23T06:52:04;35.80;65.50
11925;DHT22;6022;48.768;18.608;2022-07-23T06:54:36;35.70;64.20
11925;DHT22;6022;48.768;18.608;2022-07-23T06:57:04;35.70;63.20
11925;DHT22;6022;48.768;18.608;2022-07-23T06:59:32;36.00;62.20
11925;DHT22;6022;48.768;18.608;2022-07-23T07:02:00;35.80;61.00
11925;DHT22;6022;48.768;18.608;2022-07-23T07:04:28;36.00;61.20
11925;DHT22;6022;48.768;18.608;2022-07-23T07:06:56;36.30;59.20
11925;DHT22;6022;48.768;18.608;2022-07-23T07:09:23;36.70;57.40
11925;DHT22;6022;48.768;18.608;2022-07-23T07:11:51;36.90;56.90
11925;DHT22;6022;48.768;18.608;2022-07-23T07:14:19;36.60;57.10
11925;DHT22;6022;48.768;18.608;2022-07-23T07:16:46;36.60;56.00
11925;DHT22;6022;48.768;18.608;2022-07-23T07:19:14;36.50;55.60
11925;DHT22;6022;48.768;18.608;2022-07-23T07:21:41;36.30;55.90
11925;DHT22;6022;48.768;18.608;2022-07-23T07:24:09;35.60;56.70
11925;DHT22;6022;48.768;18.608;2022-07-23T07:26:36;35.30;57.90
11925;DHT22;6022;48.768;18.608;2022-07-23T07:29:06;35.90;58.20
11925;DHT22;6022;48.768;18.608;2022-07-23T07:31:33;37.00;55.60
11925;DHT22;6022;48.768;18.608;2022-07-23T07:34:00;37.20;53.40
11925;DHT22;6022;48.768;18.608;2022-07-23T07:36:29;36.90;53.90
11925;DHT22;6022;48.768;18.608;2022-07-23T07:38:56;36.80;54.00
11925;DHT22;6022;48.768;18.608;2022-07-23T07:41:24;37.00;53.10
11925;DHT22;6022;48.768;18.608;2022-07-23T07:43:53;37.80;51.80
11925;DHT22;6022;48.768;18.608;2022-07-23T07:46:21;38.60;50.50
11925;DHT22;6022;48.768;18.608;2022-07-23T07:48:51;39.60;48.60
11925;DHT22;6022;48.768;18.608;2022-07-23T07:51:24;39.90;46.30
11925;DHT22;6022;48.768;18.608;2022-07-23T07:53:52;40.00;45.20
11925;DHT22;6022;48.768;18.608;2022-07-23T07:56:20;39.90;44.00
11925;DHT22;6022;48.768;18.608;2022-07-23T07:58:47;39.70;43.80
11925;DHT22;6022;48.768;18.608;2022-07-23T08:01:16;39.60;43.20
11925;DHT22;6022;48.768;18.608;2022-07-23T08:03:46;39.20;43.40
11925;DHT22;6022;48.768;18.608;2022-07-23T08:06:14;39.60;44.10
11925;DHT22;6022;48.768;18.608;2022-07-23T08:08:42;39.90;43.60
11925;DHT22;6022;48.768;18.608;2022-07-23T08:11:09;40.20;41.90
11925;DHT22;6022;48.768;18.608;2022-07-23T08:13:37;39.90;41.70
11925;DHT22;6022;48.768;18.608;2022-07-23T08:16:05;40.10;41.20
11925;DHT22;6022;48.768;18.608;2022-07-23T08:18:34;40.00;40.50
11925;DHT22;6022;48.768;18.608;2022-07-23T08:21:02;39.80;40.80
11925;DHT22;6022;48.768;18.608;2022-07-23T08:23:31;40.00;40.20
11925;DHT22;6022;48.768;18.608;2022-07-23T08:25:59;40.00;40.20
11925;DHT22;6022;48.768;18.608;2022-07-23T08:28:27;40.00;38.50
11925;DHT22;6022;48.768;18.608;2022-07-23T08:30:54;40.40;38.90
11925;DHT22;6022;48.768;18.608;2022-07-23T08:33:22;40.70;37.20
11925;DHT22;6022;48.768;18.608;2022-07-23T08:36:01;41.30;37.30
11925;DHT22;6022;48.768;18.608;2022-07-23T08:38:31;41.20;36.40
11925;DHT22;6022;48.768;18.608;2022-07-23T08:41:03;40.60;36.60
11925;DHT22;6022;48.768;18.608;2022-07-23T08:43:33;39.60;37.70
11925;DHT22;6022;48.768;18.608;2022-07-23T08:46:03;39.00;38.60
11925;DHT22;6022;48.768;18.608;2022-07-23T08:48:33;38.30;38.60
11925;DHT22;6022;48.768;18.608;2022-07-23T08:51:06;38.20;39.40
11925;DHT22;6022;48.768;18.608;2022-07-23T08:53:35;38.00;39.30
11925;DHT22;6022;48.768;18.608;2022-07-23T08:56:05;37.80;38.70
11925;DHT22;6022;48.768;18.608;2022-07-23T08:58:35;37.70;38.70
11925;DHT22;6022;48.768;18.608;2022-07-23T09:01:03;37.60;38.60
11925;DHT22;6022;48.768;18.608;2022-07-23T09:03:36;37.60;38.30
11925;DHT22;6022;48.768;18.608;2022-07-23T09:06:06;38.00;39.00
11925;DHT22;6022;48.768;18.608;2022-07-23T09:08:39;38.20;38.60
11925;DHT22;6022;48.768;18.608;2022-07-23T09:11:13;38.40;38.30
11925;DHT22;6022;48.768;18.608;2022-07-23T09:13:54;38.30;38.10
11925;DHT22;6022;48.768;18.608;2022-07-23T09:16:29;38.20;38.10
11925;DHT22;6022;48.768;18.608;2022-07-23T09:19:03;38.30;38.10
11925;DHT22;6022;48.768;18.608;2022-07-23T09:21:41;38.60;38.00
11925;DHT22;6022;48.768;18.608;2022-07-23T09:24:11;38.90;37.70
11925;DHT22;6022;48.768;18.608;2022-07-23T09:26:44;39.00;37.10
11925;DHT22;6022;48.768;18.608;2022-07-23T09:29:23;38.90;37.10
11925;DHT22;6022;48.768;18.608;2022-07-23T09:32:00;38.90;36.80
11925;DHT22;6022;48.768;18.608;2022-07-23T09:34:36;38.90;37.60
11925;DHT22;6022;48.768;18.608;2022-07-23T09:37:17;39.10;37.50
11925;DHT22;6022;48.768;18.608;2022-07-23T09:39:50;40.10;37.50
11925;DHT22;6022;48.768;18.608;2022-07-23T09:42:22;40.60;35.00
11925;DHT22;6022;48.768;18.608;2022-07-23T09:44:54;40.70;35.10
11925;DHT22;6022;48.768;18.608;2022-07-23T09:47:26;40.70;35.00
11925;DHT22;6022;48.768;18.608;2022-07-23T09:50:03;40.70;35.00
11925;DHT22;6022;48.768;18.608;2022-07-23T09:52:35;41.00;34.20
11925;DHT22;6022;48.768;18.608;2022-07-23T09:55:11;41.50;33.70
11925;DHT22;6022;48.768;18.608;2022-07-23T09:57:44;41.60;32.90
11925;DHT22;6022;48.768;18.608;2022-07-23T10:00:16;41.10;32.30
11925;DHT22;6022;48.768;18.608;2022-07-23T10:02:46;40.30;32.80
11925;DHT22;6022;48.768;18.608;2022-07-23T10:05:15;39.70;34.20
11925;DHT22;6022;48.768;18.608;2022-07-23T10:07:43;39.40;34.40
11925;DHT22;6022;48.768;18.608;2022-07-23T10:10:20;39.00;35.10
11925;DHT22;6022;48.768;18.608;2022-07-23T10:12:49;39.70;35.00
11925;DHT22;6022;48.768;18.608;2022-07-23T10:15:36;40.70;34.50
11925;DHT22;6022;48.768;18.608;2022-07-23T10:18:04;41.40;32.90
11925;DHT22;6022;48.768;18.608;2022-07-23T10:20:33;41.00;33.20
11925;DHT22;6022;48.768;18.608;2022-07-23T10:35:44;40.20;34.30
11925;DHT22;6022;48.768;18.608;2022-07-23T10:38:42;41.00;33.30
11925;DHT22;6022;48.768;18.608;2022-07-23T10:41:13;41.50;30.70
11925;DHT22;6022;48.768;18.608;2022-07-23T10:43:42;41.80;31.10
11925;DHT22;6022;48.768;18.608;2022-07-23T10:46:36;42.10;30.50
11925;DHT22;6022;48.768;18.608;2022-07-23T10:49:32;42.40;30.40
11925;DHT22;6022;48.768;18.608;2022-07-23T10:52:18;42.50;30.00
11925;DHT22;6022;48.768;18.608;2022-07-23T10:57:49;42.80;29.40
11925;DHT22;6022;48.768;18.608;2022-07-23T11:00:24;42.90;29.40
11925;DHT22;6022;48.768;18.608;2022-07-23T11:02:55;43.10;28.90
11925;DHT22;6022;48.768;18.608;2022-07-23T11:05:40;43.00;28.40
11925;DHT22;6022;48.768;18.608;2022-07-23T11:08:15;42.90;27.70
11925;DHT22;6022;48.768;18.608;2022-07-23T11:11:09;42.80;28.40
11925;DHT22;6022;48.768;18.608;2022-07-23T11:13:45;42.60;28.30
11925;DHT22;6022;48.768;18.608;2022-07-23T11:24:12;42.80;27.40
11925;DHT22;6022;48.768;18.608;2022-07-23T11:26:47;42.70;27.20
11925;DHT22;6022;48.768;18.608;2022-07-23T11:31:59;42.80;27.50
11925;DHT22;6022;48.768;18.608;2022-07-23T11:34:47;42.60;27.00
11925;DHT22;6022;48.768;18.608;2022-07-23T11:37:38;42.60;27.90
11925;DHT22;6022;48.768;18.608;2022-07-23T11:40:13;42.50;28.30
11925;DHT22;6022;48.768;18.608;2022-07-23T11:42:52;42.40;27.40
11925;DHT22;6022;48.768;18.608;2022-07-23T11:45:36;42.50;27.50
11925;DHT22;6022;48.768;18.608;2022-07-23T11:48:08;42.30;27.40
11925;DHT22;6022;48.768;18.608;2022-07-23T11:50:37;42.30;27.60
11925;DHT22;6022;48.768;18.608;2022-07-23T11:53:05;42.40;27.50
11925;DHT22;6022;48.768;18.608;2022-07-23T11:55:33;42.50;27.50
11925;DHT22;6022;48.768;18.608;2022-07-23T11:58:01;42.40;26.70
11925;DHT22;6022;48.768;18.608;2022-07-23T12:00:31;42.50;26.90
11925;DHT22;6022;48.768;18.608;2022-07-23T12:03:06;42.40;26.40
11925;DHT22;6022;48.768;18.608;2022-07-23T12:05:36;42.30;27.00
11925;DHT22;6022;48.768;18.608;2022-07-23T12:08:08;42.20;26.90
11925;DHT22;6022;48.768;18.608;2022-07-23T12:10:42;42.00;26.80
11925;DHT22;6022;48.768;18.608;2022-07-23T12:13:14;42.20;26.90
11925;DHT22;6022;48.768;18.608;2022-07-23T12:15:49;41.90;26.30
11925;DHT22;6022;48.768;18.608;2022-07-23T12:18:23;41.70;26.40
11925;DHT22;6022;48.768;18.608;2022-07-23T12:20:54;41.50;26.40
11925;DHT22;6022;48.768;18.608;2022-07-23T12:23:25;41.40;26.50
11925;DHT22;6022;48.768;18.608;2022-07-23T12:25:54;41.20;26.60
11925;DHT22;6022;48.768;18.608;2022-07-23T12:28:31;41.00;25.90
11925;DHT22;6022;48.768;18.608;2022-07-23T12:31:01;40.90;26.50
11925;DHT22;6022;48.768;18.608;2022-07-23T12:33:31;40.90;26.80
11925;DHT22;6022;48.768;18.608;2022-07-23T12:36:03;40.60;27.40
11925;DHT22;6022;48.768;18.608;2022-07-23T12:38:48;40.40;27.90
11925;DHT22;6022;48.768;18.608;2022-07-23T12:41:16;40.20;27.90
11925;DHT22;6022;48.768;18.608;2022-07-23T12:43:45;40.00;27.30
11925;DHT22;6022;48.768;18.608;2022-07-23T12:46:18;40.10;27.70
11925;DHT22;6022;48.768;18.608;2022-07-23T12:51:28;40.30;28.60
11925;DHT22;6022;48.768;18.608;2022-07-23T12:54:07;40.20;29.10
11925;DHT22;6022;48.768;18.608;2022-07-23T12:56:40;40.10;28.50
11925;DHT22;6022;48.768;18.608;2022-07-23T12:59:15;39.80;28.80
11925;DHT22;6022;48.768;18.608;2022-07-23T13:01:53;39.70;29.30
11925;DHT22;6022;48.768;18.608;2022-07-23T13:04:25;39.70;29.50
11925;DHT22;6022;48.768;18.608;2022-07-23T13:06:56;39.50;29.10
11925;DHT22;6022;48.768;18.608;2022-07-23T13:09:34;39.40;29.50
11925;DHT22;6022;48.768;18.608;2022-07-23T13:12:08;39.30;28.90
11925;DHT22;6022;48.768;18.608;2022-07-23T13:14:38;39.20;29.10
11925;DHT22;6022;48.768;18.608;2022-07-23T13:17:08;39.10;29.00
11925;DHT22;6022;48.768;18.608;2022-07-23T13:19:36;38.90;28.50
11925;DHT22;6022;48.768;18.608;2022-07-23T13:22:03;38.80;28.80
11925;DHT22;6022;48.768;18.608;2022-07-23T13:24:36;38.80;29.00
11925;DHT22;6022;48.768;18.608;2022-07-23T13:27:06;38.70;29.90
11925;DHT22;6022;48.768;18.608;2022-07-23T13:29:39;38.60;28.40
11925;DHT22;6022;48.768;18.608;2022-07-23T13:32:12;38.60;28.70
11925;DHT22;6022;48.768;18.608;2022-07-23T13:34:40;38.50;28.90
11925;DHT22;6022;48.768;18.608;2022-07-23T13:37:08;38.50;29.70
11925;DHT22;6022;48.768;18.608;2022-07-23T13:39:36;38.40;29.00
11925;DHT22;6022;48.768;18.608;2022-07-23T13:42:05;38.20;29.00
11925;DHT22;6022;48.768;18.608;2022-07-23T13:44:34;38.30;28.70
11925;DHT22;6022;48.768;18.608;2022-07-23T13:47:02;38.10;28.80
11925;DHT22;6022;48.768;18.608;2022-07-23T13:49:31;38.10;29.00
11925;DHT22;6022;48.768;18.608;2022-07-23T13:52:02;37.80;28.90
11925;DHT22;6022;48.768;18.608;2022-07-23T13:54:34;37.80;29.60
11925;DHT22;6022;48.768;18.608;2022-07-23T13:57:02;37.80;29.60
11925;DHT22;6022;48.768;18.608;2022-07-23T13:59:31;37.80;29.80
11925;DHT22;6022;48.768;18.608;2022-07-23T14:02:00;37.70;30.20
11925;DHT22;6022;48.768;18.608;2022-07-23T14:04:47;37.70;30.50
11925;DHT22;6022;48.768;18.608;2022-07-23T14:07:16;37.70;30.80
11925;DHT22;6022;48.768;18.608;2022-07-23T14:09:45;37.80;30.90
11925;DHT22;6022;48.768;18.608;2022-07-23T14:12:13;37.80;30.20
11925;DHT22;6022;48.768;18.608;2022-07-23T14:14:44;37.80;30.80
11925;DHT22;6022;48.768;18.608;2022-07-23T14:17:13;37.80;30.50
11925;DHT22;6022;48.768;18.608;2022-07-23T14:19:41;37.80;30.50
11925;DHT22;6022;48.768;18.608;2022-07-23T14:22:10;37.70;31.00
11925;DHT22;6022;48.768;18.608;2022-07-23T14:24:39;37.70;30.60
11925;DHT22;6022;48.768;18.608;2022-07-23T14:27:07;37.80;30.80
11925;DHT22;6022;48.768;18.608;2022-07-23T14:29:35;37.80;31.00
11925;DHT22;6022;48.768;18.608;2022-07-23T14:32:03;37.70;30.80
11925;DHT22;6022;48.768;18.608;2022-07-23T14:34:33;37.70;30.00
11925;DHT22;6022;48.768;18.608;2022-07-23T14:37:04;37.70;32.10
11925;DHT22;6022;48.768;18.608;2022-07-23T14:39:33;37.60;31.30
11925;DHT22;6022;48.768;18.608;2022-07-23T14:42:01;37.50;31.20
11925;DHT22;6022;48.768;18.608;2022-07-23T14:44:30;37.50;30.10
11925;DHT22;6022;48.768;18.608;2022-07-23T14:46:59;37.30;33.10
11925;DHT22;6022;48.768;18.608;2022-07-23T14:49:27;37.20;32.50
11925;DHT22;6022;48.768;18.608;2022-07-23T14:51:56;37.00;34.00
11925;DHT22;6022;48.768;18.608;2022-07-23T14:54:26;36.80;35.30
11925;DHT22;6022;48.768;18.608;2022-07-23T14:56:57;36.30;32.70
11925;DHT22;6022;48.768;18.608;2022-07-23T14:59:29;36.30;33.00
11925;DHT22;6022;48.768;18.608;2022-07-23T15:01:57;36.00;34.10
11925;DHT22;6022;48.768;18.608;2022-07-23T15:04:25;35.90;36.40
11925;DHT22;6022;48.768;18.608;2022-07-23T15:07:03;35.80;37.30
11925;DHT22;6022;48.768;18.608;2022-07-23T15:09:35;35.70;36.30
11925;DHT22;6022;48.768;18.608;2022-07-23T15:12:04;35.60;35.40
11925;DHT22;6022;48.768;18.608;2022-07-23T15:14:38;35.30;35.20
11925;DHT22;6022;48.768;18.608;2022-07-23T15:17:06;35.10;34.60
11925;DHT22;6022;48.768;18.608;2022-07-23T15:19:34;34.80;33.80
11925;DHT22;6022;48.768;18.608;2022-07-23T15:22:02;34.60;34.20
11925;DHT22;6022;48.768;18.608;2022-07-23T15:24:34;34.60;34.60
11925;DHT22;6022;48.768;18.608;2022-07-23T15:27:01;34.40;34.90
11925;DHT22;6022;48.768;18.608;2022-07-23T15:29:30;34.60;35.00
11925;DHT22;6022;48.768;18.608;2022-07-23T15:31:58;34.60;34.90
11925;DHT22;6022;48.768;18.608;2022-07-23T15:34:27;34.60;35.40
11925;DHT22;6022;48.768;18.608;2022-07-23T15:36:59;34.60;35.90
11925;DHT22;6022;48.768;18.608;2022-07-23T15:39:27;34.60;36.50
11925;DHT22;6022;48.768;18.608;2022-07-23T15:41:55;34.50;37.40
11925;DHT22;6022;48.768;18.608;2022-07-23T15:44:24;34.40;38.30
11925;DHT22;6022;48.768;18.608;2022-07-23T15:46:56;34.20;39.10
11925;DHT22;6022;48.768;18.608;2022-07-23T15:49:26;33.90;40.50
11925;DHT22;6022;48.768;18.608;2022-07-23T15:51:55;34.00;41.20
11925;DHT22;6022;48.768;18.608;2022-07-23T15:54:23;33.90;41.80
11925;DHT22;6022;48.768;18.608;2022-07-23T15:56:52;33.80;42.40
11925;DHT22;6022;48.768;18.608;2022-07-23T15:59:22;33.70;42.90
11925;DHT22;6022;48.768;18.608;2022-07-23T16:01:56;33.60;43.30
11925;DHT22;6022;48.768;18.608;2022-07-23T16:04:25;33.50;43.90
11925;DHT22;6022;48.768;18.608;2022-07-23T16:06:53;33.00;44.90
11925;DHT22;6022;48.768;18.608;2022-07-23T16:09:21;33.10;45.60
11925;DHT22;6022;48.768;18.608;2022-07-23T16:11:48;33.10;46.60
11925;DHT22;6022;48.768;18.608;2022-07-23T16:14:16;32.70;49.80
11925;DHT22;6022;48.768;18.608;2022-07-23T16:16:45;31.90;52.60